Bowerstown, Indiana
Current Conditions -  °F | °C
As of 8:15 AM on Wednesday 22 Oct 2014 (Local Time) from KHHG Reporting Station
Overcast Overcast  
Wind Chill: 35°   Ceiling: 2400
Heat Index: 39°   Visibility: 10mi
Dew Point: 37°   Wind: 5mph
Humidity: 92%   Direction: 20°NNE
Pressure: 30.31"   Gusts: NA
Location:  40.9238°N, 85.5001°W
Report Text: KHHG 221215Z AUTO 02004KT 10SM OVC024 04/03 A3031 RMK AO2 T00370025
Loading
Personal Weather Stations






























Interactive Weather Map
Tropical Storm Tracking
New forecast layout! Learn more

10-Day Weather Forecast

Advertisements
Track Severe Weather on mobile